createdAt,value
2022-10-08T00:00:38.023Z,88.36
2022-10-08T00:10:38.051Z,87.10
2022-10-08T00:20:38.398Z,87.45
2022-10-08T00:30:38.428Z,87.35
2022-10-08T00:40:38.949Z,87.69
2022-10-08T00:50:38.775Z,86.53
2022-10-08T01:00:39.113Z,86.94
2022-10-08T01:10:39.163Z,87.38
2022-10-08T01:20:39.701Z,88.31
2022-10-08T01:30:39.549Z,89.01
2022-10-08T01:40:39.879Z,88.34
2022-10-08T01:50:39.899Z,87.08
2022-10-08T02:00:40.217Z,86.22
2022-10-08T02:10:40.236Z,85.31
2022-10-08T02:20:40.577Z,86.06
2022-10-08T02:30:40.606Z,88.08
2022-10-08T02:40:40.915Z,87.63
2022-10-08T02:50:40.950Z,88.24
2022-10-08T03:00:41.261Z,88.34
2022-10-08T03:10:41.298Z,87.94
2022-10-08T03:20:41.617Z,87.63
2022-10-08T03:30:41.719Z,87.73
2022-10-08T03:40:41.867Z,87.98
2022-10-08T03:50:41.888Z,87.88
2022-10-08T04:00:42.215Z,87.26
2022-10-08T04:10:42.229Z,88.84
2022-10-08T04:20:42.500Z,87.77
2022-10-08T04:30:42.782Z,85.69
2022-10-08T04:40:42.905Z,85.80
2022-10-08T04:50:42.935Z,87.16
2022-10-08T05:00:43.263Z,86.30
2022-10-08T05:10:43.279Z,85.08
2022-10-08T05:20:43.610Z,84.78
2022-10-08T05:30:43.642Z,85.39
2022-10-08T05:40:43.955Z,86.76
2022-10-08T05:50:43.973Z,87.16
2022-10-08T06:00:44.424Z,87.51
2022-10-08T06:10:44.434Z,86.65
2022-10-08T06:20:44.762Z,85.43
2022-10-08T06:30:44.810Z,84.58
2022-10-08T06:40:45.117Z,84.37
2022-10-08T06:50:45.139Z,82.80
2022-10-08T07:00:45.530Z,83.21
2022-10-08T07:10:45.590Z,83.72
2022-10-08T07:20:45.916Z,84.33
2022-10-08T07:30:45.947Z,83.98
2022-10-08T07:40:46.267Z,82.12
2022-10-08T07:50:46.293Z,82.52
2022-10-08T08:00:46.643Z,82.76
2022-10-08T08:10:46.696Z,80.90
2022-10-08T08:20:47.162Z,78.21
2022-10-08T08:30:47.190Z,79.33
2022-10-08T08:40:47.517Z,79.39
2022-10-08T08:50:48.899Z,78.30
2022-10-08T09:00:47.785Z,75.02
2022-10-08T09:10:47.859Z,76.54
2022-10-08T09:20:48.117Z,77.70
2022-10-08T09:30:48.275Z,77.49
2022-10-08T09:40:48.576Z,78.51
2022-10-08T09:50:48.596Z,78.06
2022-10-08T10:00:48.924Z,78.53
2022-10-08T10:10:48.955Z,74.88
2022-10-08T10:20:49.283Z,75.25
2022-10-08T10:30:49.356Z,74.14
2022-10-08T10:40:49.404Z,74.54
2022-10-08T10:50:49.643Z,76.17
2022-10-08T11:00:49.971Z,78.91
2022-10-08T11:10:49.991Z,83.87
2022-10-08T11:20:50.321Z,84.83
2022-10-08T11:30:50.400Z,85.84
2022-10-08T11:40:50.457Z,89.23
2022-10-08T11:50:50.679Z,92.42
2022-10-08T12:00:51.009Z,94.29
2022-10-08T12:10:51.045Z,95.41
2022-10-08T12:20:54.489Z,95.67
2022-10-08T12:30:51.557Z,95.87
2022-10-08T12:40:51.930Z,96.53
2022-10-08T12:50:51.945Z,90.09
2022-10-08T13:00:52.346Z,81.96
2022-10-08T13:10:52.398Z,81.54
2022-10-08T13:20:52.824Z,92.24
2022-10-08T13:30:52.854Z,95.42
2022-10-08T13:40:53.170Z,96.99
2022-10-08T13:50:53.200Z,97.65
2022-10-08T14:00:53.588Z,98.16
2022-10-08T14:10:53.635Z,98.32
2022-10-08T14:20:54.210Z,98.77
2022-10-08T14:30:54.032Z,98.66
2022-10-08T14:40:54.323Z,99.27
2022-10-08T14:50:54.351Z,99.38
2022-10-08T15:00:54.679Z,99.58
2022-10-08T15:10:54.720Z,99.63
2022-10-08T15:20:55.036Z,99.74
2022-10-08T15:30:55.079Z,99.63
2022-10-08T15:40:55.368Z,99.99
2022-10-08T15:50:55.398Z,99.99
2022-10-08T16:00:55.799Z,99.99
2022-10-08T16:10:58.170Z,99.99
2022-10-08T16:20:56.174Z,99.99
2022-10-08T16:30:56.214Z,99.99
2022-10-08T16:40:56.530Z,99.99
2022-10-08T16:50:56.558Z,99.99
2022-10-08T17:00:57.009Z,99.99
2022-10-08T17:10:56.933Z,99.99
2022-10-08T17:20:57.428Z,99.99
2022-10-08T17:30:57.313Z,99.99
2022-10-08T17:40:57.672Z,99.99
2022-10-08T17:50:57.777Z,99.99
2022-10-08T18:00:57.715Z,99.99
2022-10-08T18:10:57.757Z,99.99
2022-10-08T18:20:58.072Z,99.83
2022-10-08T18:30:58.174Z,99.31
2022-10-08T18:40:58.537Z,98.70
2022-10-08T18:50:58.713Z,98.50
2022-10-08T19:00:58.886Z,98.55
2022-10-08T19:10:58.722Z,98.39
2022-10-08T19:20:59.221Z,98.65
2022-10-08T19:30:59.159Z,99.51
2022-10-08T19:41:00.045Z,99.56
2022-10-08T19:50:59.579Z,99.51
2022-10-08T20:00:59.625Z,99.66
2022-10-08T20:10:59.786Z,99.82
2022-10-08T20:20:59.966Z,99.56
2022-10-08T20:31:00.024Z,99.82
2022-10-08T20:41:00.095Z,99.92
2022-10-08T20:51:00.335Z,99.99
2022-10-08T21:01:00.727Z,99.99
2022-10-08T21:11:00.753Z,99.99
2022-10-08T21:21:01.019Z,99.99
2022-10-08T21:31:04.137Z,99.99
2022-10-08T21:41:01.364Z,99.99
2022-10-08T21:51:01.397Z,99.52
2022-10-08T22:01:01.735Z,99.36
2022-10-08T22:11:01.808Z,99.30
2022-10-08T22:21:02.091Z,98.90
2022-10-08T22:31:02.172Z,99.04
2022-10-08T22:41:02.306Z,98.64
2022-10-08T22:51:02.324Z,98.23
2022-10-08T23:01:02.670Z,98.07
2022-10-08T23:11:02.708Z,97.97
2022-10-08T23:21:03.014Z,98.22
2022-10-08T23:31:03.033Z,98.02
2022-10-08T23:41:03.355Z,97.50
2022-10-08T23:51:03.373Z,97.40
